sensor_id;sensor_type;location;lat;lon;timestamp;temperature;humidity
16347;DHT22;8283;48.504;13.734;2023-03-23T00:00:32;13.80;53.70
16347;DHT22;8283;48.504;13.734;2023-03-23T00:03:16;13.80;53.30
16347;DHT22;8283;48.504;13.734;2023-03-23T00:06:01;13.80;53.30
16347;DHT22;8283;48.504;13.734;2023-03-23T00:08:50;13.70;53.30
16347;DHT22;8283;48.504;13.734;2023-03-23T00:11:39;13.70;53.40
16347;DHT22;8283;48.504;13.734;2023-03-23T00:14:24;13.70;53.40
16347;DHT22;8283;48.504;13.734;2023-03-23T00:17:09;13.70;53.50
16347;DHT22;8283;48.504;13.734;2023-03-23T00:19:55;13.60;53.70
16347;DHT22;8283;48.504;13.734;2023-03-23T00:22:39;13.60;53.70
16347;DHT22;8283;48.504;13.734;2023-03-23T00:25:25;13.60;53.60
16347;DHT22;8283;48.504;13.734;2023-03-23T00:28:09;13.60;53.70
16347;DHT22;8283;48.504;13.734;2023-03-23T00:31:05;13.50;53.80
16347;DHT22;8283;48.504;13.734;2023-03-23T00:33:52;13.50;54.70
16347;DHT22;8283;48.504;13.734;2023-03-23T00:36:37;13.50;53.90
16347;DHT22;8283;48.504;13.734;2023-03-23T00:39:28;13.40;54.00
16347;DHT22;8283;48.504;13.734;2023-03-23T00:42:14;13.40;54.10
16347;DHT22;8283;48.504;13.734;2023-03-23T00:45:00;13.40;54.40
16347;DHT22;8283;48.504;13.734;2023-03-23T00:47:45;13.40;54.30
16347;DHT22;8283;48.504;13.734;2023-03-23T00:50:31;13.40;54.40
16347;DHT22;8283;48.504;13.734;2023-03-23T00:53:17;13.40;54.40
16347;DHT22;8283;48.504;13.734;2023-03-23T00:56:01;13.40;54.40
16347;DHT22;8283;48.504;13.734;2023-03-23T00:58:46;13.40;54.50
16347;DHT22;8283;48.504;13.734;2023-03-23T01:01:32;13.40;54.50
16347;DHT22;8283;48.504;13.734;2023-03-23T01:04:16;13.40;54.70
16347;DHT22;8283;48.504;13.734;2023-03-23T01:07:01;13.30;54.60
16347;DHT22;8283;48.504;13.734;2023-03-23T01:09:49;13.30;54.60
16347;DHT22;8283;48.504;13.734;2023-03-23T01:12:37;13.30;54.70
16347;DHT22;8283;48.504;13.734;2023-03-23T01:15:21;13.40;56.00
16347;DHT22;8283;48.504;13.734;2023-03-23T01:18:07;13.30;54.20
16347;DHT22;8283;48.504;13.734;2023-03-23T01:20:51;13.30;54.60
16347;DHT22;8283;48.504;13.734;2023-03-23T01:23:37;13.30;54.60
16347;DHT22;8283;48.504;13.734;2023-03-23T01:26:24;13.30;54.90
16347;DHT22;8283;48.504;13.734;2023-03-23T01:29:09;13.30;55.10
16347;DHT22;8283;48.504;13.734;2023-03-23T01:31:53;13.30;54.90
16347;DHT22;8283;48.504;13.734;2023-03-23T01:34:38;13.20;54.90
16347;DHT22;8283;48.504;13.734;2023-03-23T01:37:23;13.20;55.00
16347;DHT22;8283;48.504;13.734;2023-03-23T01:40:11;13.20;54.90
16347;DHT22;8283;48.504;13.734;2023-03-23T01:42:56;13.20;55.00
16347;DHT22;8283;48.504;13.734;2023-03-23T01:45:41;13.20;55.10
16347;DHT22;8283;48.504;13.734;2023-03-23T01:48:38;13.20;55.20
16347;DHT22;8283;48.504;13.734;2023-03-23T01:51:24;13.20;55.20
16347;DHT22;8283;48.504;13.734;2023-03-23T01:54:13;13.20;55.30
16347;DHT22;8283;48.504;13.734;2023-03-23T01:57:06;13.20;55.40
16347;DHT22;8283;48.504;13.734;2023-03-23T01:59:52;13.10;55.80
16347;DHT22;8283;48.504;13.734;2023-03-23T02:02:44;13.10;55.30
16347;DHT22;8283;48.504;13.734;2023-03-23T02:05:40;13.10;55.40
16347;DHT22;8283;48.504;13.734;2023-03-23T02:08:31;13.10;56.20
16347;DHT22;8283;48.504;13.734;2023-03-23T02:11:20;13.10;55.50
16347;DHT22;8283;48.504;13.734;2023-03-23T02:14:05;13.10;55.60
16347;DHT22;8283;48.504;13.734;2023-03-23T02:16:54;13.10;55.50
16347;DHT22;8283;48.504;13.734;2023-03-23T02:26:11;13.00;55.80
16347;DHT22;8283;48.504;13.734;2023-03-23T02:35:03;13.00;56.60
16347;DHT22;8283;48.504;13.734;2023-03-23T02:37:57;12.90;56.00
16347;DHT22;8283;48.504;13.734;2023-03-23T02:40:48;12.90;56.10
16347;DHT22;8283;48.504;13.734;2023-03-23T02:43:39;12.90;56.00
16347;DHT22;8283;48.504;13.734;2023-03-23T02:46:25;12.90;56.20
16347;DHT22;8283;48.504;13.734;2023-03-23T02:49:12;12.90;55.90
16347;DHT22;8283;48.504;13.734;2023-03-23T02:51:59;12.90;56.00
16347;DHT22;8283;48.504;13.734;2023-03-23T02:54:46;12.80;56.00
16347;DHT22;8283;48.504;13.734;2023-03-23T02:57:32;12.80;56.00
16347;DHT22;8283;48.504;13.734;2023-03-23T03:00:20;12.80;55.90
16347;DHT22;8283;48.504;13.734;2023-03-23T03:03:07;12.80;56.00
16347;DHT22;8283;48.504;13.734;2023-03-23T03:08:55;12.80;55.90
16347;DHT22;8283;48.504;13.734;2023-03-23T03:11:46;12.80;56.10
16347;DHT22;8283;48.504;13.734;2023-03-23T03:14:41;12.70;56.40
16347;DHT22;8283;48.504;13.734;2023-03-23T03:17:31;12.70;56.60
16347;DHT22;8283;48.504;13.734;2023-03-23T03:20:16;12.70;56.60
16347;DHT22;8283;48.504;13.734;2023-03-23T03:23:01;12.70;56.50
16347;DHT22;8283;48.504;13.734;2023-03-23T03:25:48;12.70;57.30
16347;DHT22;8283;48.504;13.734;2023-03-23T03:28:46;12.60;57.10
16347;DHT22;8283;48.504;13.734;2023-03-23T03:31:38;12.60;57.30
16347;DHT22;8283;48.504;13.734;2023-03-23T03:34:23;12.60;56.70
16347;DHT22;8283;48.504;13.734;2023-03-23T03:37:10;12.60;56.50
16347;DHT22;8283;48.504;13.734;2023-03-23T03:39:56;12.60;56.50
16347;DHT22;8283;48.504;13.734;2023-03-23T03:42:43;12.50;56.20
16347;DHT22;8283;48.504;13.734;2023-03-23T03:45:27;12.50;56.30
16347;DHT22;8283;48.504;13.734;2023-03-23T03:48:12;12.50;56.30
16347;DHT22;8283;48.504;13.734;2023-03-23T03:50:57;12.40;56.20
16347;DHT22;8283;48.504;13.734;2023-03-23T03:53:42;12.40;56.20
16347;DHT22;8283;48.504;13.734;2023-03-23T03:56:26;12.40;56.30
16347;DHT22;8283;48.504;13.734;2023-03-23T03:59:23;12.30;56.30
16347;DHT22;8283;48.504;13.734;2023-03-23T04:02:27;12.30;56.30
16347;DHT22;8283;48.504;13.734;2023-03-23T04:05:12;12.30;56.20
16347;DHT22;8283;48.504;13.734;2023-03-23T04:07:57;12.30;56.30
16347;DHT22;8283;48.504;13.734;2023-03-23T04:10:48;12.20;56.30
16347;DHT22;8283;48.504;13.734;2023-03-23T04:13:34;12.20;56.40
16347;DHT22;8283;48.504;13.734;2023-03-23T04:16:39;12.20;56.40
16347;DHT22;8283;48.504;13.734;2023-03-23T04:19:25;12.20;56.40
16347;DHT22;8283;48.504;13.734;2023-03-23T04:22:09;12.20;56.50
16347;DHT22;8283;48.504;13.734;2023-03-23T04:24:57;12.10;56.50
16347;DHT22;8283;48.504;13.734;2023-03-23T04:27:43;12.10;56.70
16347;DHT22;8283;48.504;13.734;2023-03-23T04:30:30;12.10;56.60
16347;DHT22;8283;48.504;13.734;2023-03-23T04:33:27;12.10;56.60
16347;DHT22;8283;48.504;13.734;2023-03-23T04:36:12;12.20;56.80
16347;DHT22;8283;48.504;13.734;2023-03-23T04:39:06;12.30;56.80
16347;DHT22;8283;48.504;13.734;2023-03-23T04:41:54;12.00;56.70
16347;DHT22;8283;48.504;13.734;2023-03-23T04:44:59;12.00;56.70
16347;DHT22;8283;48.504;13.734;2023-03-23T04:47:52;12.00;56.90
16347;DHT22;8283;48.504;13.734;2023-03-23T04:50:47;11.90;56.70
16347;DHT22;8283;48.504;13.734;2023-03-23T04:53:40;11.90;56.80
16347;DHT22;8283;48.504;13.734;2023-03-23T04:56:25;11.90;56.90
16347;DHT22;8283;48.504;13.734;2023-03-23T04:59:10;11.90;57.00
16347;DHT22;8283;48.504;13.734;2023-03-23T05:02:05;11.90;57.10
16347;DHT22;8283;48.504;13.734;2023-03-23T05:04:50;11.90;57.40
16347;DHT22;8283;48.504;13.734;2023-03-23T05:07:42;11.90;57.00
16347;DHT22;8283;48.504;13.734;2023-03-23T05:10:27;12.90;57.50
16347;DHT22;8283;48.504;13.734;2023-03-23T05:13:15;11.90;57.00
16347;DHT22;8283;48.504;13.734;2023-03-23T05:16:04;11.80;57.10
16347;DHT22;8283;48.504;13.734;2023-03-23T05:18:49;11.80;57.40
16347;DHT22;8283;48.504;13.734;2023-03-23T05:21:35;11.80;57.10
16347;DHT22;8283;48.504;13.734;2023-03-23T05:24:21;11.80;57.20
16347;DHT22;8283;48.504;13.734;2023-03-23T05:27:06;11.80;57.20
16347;DHT22;8283;48.504;13.734;2023-03-23T05:29:53;11.80;57.40
16347;DHT22;8283;48.504;13.734;2023-03-23T05:32:39;11.80;57.40
16347;DHT22;8283;48.504;13.734;2023-03-23T05:35:56;11.80;57.50
16347;DHT22;8283;48.504;13.734;2023-03-23T05:38:46;11.90;57.50
16347;DHT22;8283;48.504;13.734;2023-03-23T05:41:33;11.90;57.60
16347;DHT22;8283;48.504;13.734;2023-03-23T05:44:18;11.90;57.70
16347;DHT22;8283;48.504;13.734;2023-03-23T05:47:06;11.90;57.70
16347;DHT22;8283;48.504;13.734;2023-03-23T05:49:51;11.90;57.80
16347;DHT22;8283;48.504;13.734;2023-03-23T05:52:41;12.00;58.50
16347;DHT22;8283;48.504;13.734;2023-03-23T05:55:28;12.00;58.00
16347;DHT22;8283;48.504;13.734;2023-03-23T05:58:24;12.10;58.00
16347;DHT22;8283;48.504;13.734;2023-03-23T06:01:09;12.10;58.20
16347;DHT22;8283;48.504;13.734;2023-03-23T06:03:54;12.10;58.20
16347;DHT22;8283;48.504;13.734;2023-03-23T06:07:03;12.20;58.30
16347;DHT22;8283;48.504;13.734;2023-03-23T06:09:48;12.30;58.30
16347;DHT22;8283;48.504;13.734;2023-03-23T06:12:53;12.30;58.30
16347;DHT22;8283;48.504;13.734;2023-03-23T06:15:45;12.40;58.30
16347;DHT22;8283;48.504;13.734;2023-03-23T06:18:36;12.40;58.30
16347;DHT22;8283;48.504;13.734;2023-03-23T06:21:31;12.50;58.30
16347;DHT22;8283;48.504;13.734;2023-03-23T06:24:39;12.50;58.30
16347;DHT22;8283;48.504;13.734;2023-03-23T06:27:23;12.60;58.10
16347;DHT22;8283;48.504;13.734;2023-03-23T06:30:09;12.60;58.20
16347;DHT22;8283;48.504;13.734;2023-03-23T06:32:54;12.60;58.30
16347;DHT22;8283;48.504;13.734;2023-03-23T06:35:57;12.70;58.30
16347;DHT22;8283;48.504;13.734;2023-03-23T06:38:59;12.70;58.20
16347;DHT22;8283;48.504;13.734;2023-03-23T06:41:54;12.70;58.20
16347;DHT22;8283;48.504;13.734;2023-03-23T06:44:40;12.80;58.40
16347;DHT22;8283;48.504;13.734;2023-03-23T06:47:26;12.80;58.60
16347;DHT22;8283;48.504;13.734;2023-03-23T06:50:10;12.90;58.90
16347;DHT22;8283;48.504;13.734;2023-03-23T06:52:55;13.00;59.20
16347;DHT22;8283;48.504;13.734;2023-03-23T06:55:42;13.10;59.30
16347;DHT22;8283;48.504;13.734;2023-03-23T06:58:26;13.30;59.60
16347;DHT22;8283;48.504;13.734;2023-03-23T07:01:11;13.40;59.50
16347;DHT22;8283;48.504;13.734;2023-03-23T07:04:00;13.60;59.40
16347;DHT22;8283;48.504;13.734;2023-03-23T07:06:58;13.80;59.50
16347;DHT22;8283;48.504;13.734;2023-03-23T07:09:49;13.90;59.20
16347;DHT22;8283;48.504;13.734;2023-03-23T07:12:38;14.10;59.20
16347;DHT22;8283;48.504;13.734;2023-03-23T07:15:24;14.20;59.10
16347;DHT22;8283;48.504;13.734;2023-03-23T07:18:11;14.30;59.20
16347;DHT22;8283;48.504;13.734;2023-03-23T07:21:01;14.50;59.30
16347;DHT22;8283;48.504;13.734;2023-03-23T07:23:49;14.60;59.30
16347;DHT22;8283;48.504;13.734;2023-03-23T07:26:48;14.80;59.30
16347;DHT22;8283;48.504;13.734;2023-03-23T07:29:33;14.90;59.00
16347;DHT22;8283;48.504;13.734;2023-03-23T07:32:26;15.00;58.90
16347;DHT22;8283;48.504;13.734;2023-03-23T07:35:11;15.10;58.70
16347;DHT22;8283;48.504;13.734;2023-03-23T07:38:22;15.20;58.60
16347;DHT22;8283;48.504;13.734;2023-03-23T07:41:09;15.30;58.40
16347;DHT22;8283;48.504;13.734;2023-03-23T07:43:57;15.50;58.40
16347;DHT22;8283;48.504;13.734;2023-03-23T07:46:49;15.40;58.30
16347;DHT22;8283;48.504;13.734;2023-03-23T07:49:36;15.50;58.40
16347;DHT22;8283;48.504;13.734;2023-03-23T07:52:34;15.60;58.90
16347;DHT22;8283;48.504;13.734;2023-03-23T07:55:19;15.70;59.00
16347;DHT22;8283;48.504;13.734;2023-03-23T07:58:20;15.80;59.10
16347;DHT22;8283;48.504;13.734;2023-03-23T08:01:11;16.00;59.30
16347;DHT22;8283;48.504;13.734;2023-03-23T08:03:56;16.20;59.50
16347;DHT22;8283;48.504;13.734;2023-03-23T08:07:05;16.50;59.80
16347;DHT22;8283;48.504;13.734;2023-03-23T08:10:03;16.80;60.10
16347;DHT22;8283;48.504;13.734;2023-03-23T08:13:20;17.10;59.90
16347;DHT22;8283;48.504;13.734;2023-03-23T08:16:24;17.40;59.50
16347;DHT22;8283;48.504;13.734;2023-03-23T08:19:32;17.60;59.10
16347;DHT22;8283;48.504;13.734;2023-03-23T08:22:59;17.90;58.80
16347;DHT22;8283;48.504;13.734;2023-03-23T08:25:57;18.00;58.50
16347;DHT22;8283;48.504;13.734;2023-03-23T08:29:01;18.10;58.50
16347;DHT22;8283;48.504;13.734;2023-03-23T08:32:09;18.20;58.50
16347;DHT22;8283;48.504;13.734;2023-03-23T08:35:12;18.30;58.30
16347;DHT22;8283;48.504;13.734;2023-03-23T08:38:16;18.50;58.20
16347;DHT22;8283;48.504;13.734;2023-03-23T08:41:27;18.60;58.10
16347;DHT22;8283;48.504;13.734;2023-03-23T08:44:32;18.70;58.00
16347;DHT22;8283;48.504;13.734;2023-03-23T08:47:34;18.80;58.00
16347;DHT22;8283;48.504;13.734;2023-03-23T08:50:34;18.80;57.90
16347;DHT22;8283;48.504;13.734;2023-03-23T08:53:34;18.90;57.90
16347;DHT22;8283;48.504;13.734;2023-03-23T08:56:46;19.00;57.70
16347;DHT22;8283;48.504;13.734;2023-03-23T08:59:43;19.10;57.80
16347;DHT22;8283;48.504;13.734;2023-03-23T09:02:36;19.20;58.10
16347;DHT22;8283;48.504;13.734;2023-03-23T09:05:31;19.30;58.30
16347;DHT22;8283;48.504;13.734;2023-03-23T09:08:21;19.50;58.50
16347;DHT22;8283;48.504;13.734;2023-03-23T09:11:08;19.80;58.50
16347;DHT22;8283;48.504;13.734;2023-03-23T09:13:53;20.00;58.60
16347;DHT22;8283;48.504;13.734;2023-03-23T09:16:38;20.20;58.40
16347;DHT22;8283;48.504;13.734;2023-03-23T09:19:22;20.50;58.10
16347;DHT22;8283;48.504;13.734;2023-03-23T09:22:07;20.70;58.00
16347;DHT22;8283;48.504;13.734;2023-03-23T09:24:52;20.90;58.00
16347;DHT22;8283;48.504;13.734;2023-03-23T09:27:37;21.10;58.10
16347;DHT22;8283;48.504;13.734;2023-03-23T09:30:28;21.40;58.20
16347;DHT22;8283;48.504;13.734;2023-03-23T09:33:15;21.60;58.20
16347;DHT22;8283;48.504;13.734;2023-03-23T09:35:59;22.00;58.00
16347;DHT22;8283;48.504;13.734;2023-03-23T09:38:45;22.30;57.70
16347;DHT22;8283;48.504;13.734;2023-03-23T09:54:25;23.30;55.50
16347;DHT22;8283;48.504;13.734;2023-03-23T09:57:30;23.40;55.80
16347;DHT22;8283;48.504;13.734;2023-03-23T10:03:21;23.80;55.50
16347;DHT22;8283;48.504;13.734;2023-03-23T10:06:11;24.00;55.10
16347;DHT22;8283;48.504;13.734;2023-03-23T10:08:58;24.20;55.80
16347;DHT22;8283;48.504;13.734;2023-03-23T10:14:41;24.80;55.20
16347;DHT22;8283;48.504;13.734;2023-03-23T10:20:43;25.40;55.80
16347;DHT22;8283;48.504;13.734;2023-03-23T10:23:52;25.70;54.50
16347;DHT22;8283;48.504;13.734;2023-03-23T10:27:16;26.10;54.30
16347;DHT22;8283;48.504;13.734;2023-03-23T10:33:02;26.90;54.30
16347;DHT22;8283;48.504;13.734;2023-03-23T10:35:58;27.40;53.80
16347;DHT22;8283;48.504;13.734;2023-03-23T10:38:52;27.70;53.60
16347;DHT22;8283;48.504;13.734;2023-03-23T10:41:38;28.00;52.80
16347;DHT22;8283;48.504;13.734;2023-03-23T10:44:24;28.30;53.40
16347;DHT22;8283;48.504;13.734;2023-03-23T10:47:10;28.70;52.90
16347;DHT22;8283;48.504;13.734;2023-03-23T10:49:59;29.00;53.20
16347;DHT22;8283;48.504;13.734;2023-03-23T10:52:45;29.40;52.80
16347;DHT22;8283;48.504;13.734;2023-03-23T10:55:40;29.80;52.90
16347;DHT22;8283;48.504;13.734;2023-03-23T10:58:34;30.10;50.20
16347;DHT22;8283;48.504;13.734;2023-03-23T11:01:28;30.50;50.30
16347;DHT22;8283;48.504;13.734;2023-03-23T11:04:15;30.90;51.20
16347;DHT22;8283;48.504;13.734;2023-03-23T11:07:01;31.20;50.20
16347;DHT22;8283;48.504;13.734;2023-03-23T11:09:55;31.50;50.00
16347;DHT22;8283;48.504;13.734;2023-03-23T11:12:44;31.70;48.10
16347;DHT22;8283;48.504;13.734;2023-03-23T11:15:33;31.90;48.40
16347;DHT22;8283;48.504;13.734;2023-03-23T11:18:41;32.10;48.70
16347;DHT22;8283;48.504;13.734;2023-03-23T11:21:31;32.30;46.50
16347;DHT22;8283;48.504;13.734;2023-03-23T11:24:16;32.40;47.20
16347;DHT22;8283;48.504;13.734;2023-03-23T11:27:01;32.50;47.60
16347;DHT22;8283;48.504;13.734;2023-03-23T11:29:55;32.60;47.20
16347;DHT22;8283;48.504;13.734;2023-03-23T11:32:43;32.70;46.20
16347;DHT22;8283;48.504;13.734;2023-03-23T11:35:29;32.80;45.80
16347;DHT22;8283;48.504;13.734;2023-03-23T11:38:19;32.80;46.20
16347;DHT22;8283;48.504;13.734;2023-03-23T11:41:10;32.90;45.20
16347;DHT22;8283;48.504;13.734;2023-03-23T11:43:55;33.10;44.90
16347;DHT22;8283;48.504;13.734;2023-03-23T11:47:00;33.20;46.30
16347;DHT22;8283;48.504;13.734;2023-03-23T11:50:00;33.40;43.60
16347;DHT22;8283;48.504;13.734;2023-03-23T11:52:52;33.60;43.30
16347;DHT22;8283;48.504;13.734;2023-03-23T11:58:32;33.90;43.20
16347;DHT22;8283;48.504;13.734;2023-03-23T12:01:25;34.10;44.60
16347;DHT22;8283;48.504;13.734;2023-03-23T12:04:47;34.30;42.30
16347;DHT22;8283;48.504;13.734;2023-03-23T12:10:55;34.80;41.70
16347;DHT22;8283;48.504;13.734;2023-03-23T12:20:04;34.50;39.70
16347;DHT22;8283;48.504;13.734;2023-03-23T12:31:49;33.50;39.70
16347;DHT22;8283;48.504;13.734;2023-03-23T12:38:03;33.20;39.20
16347;DHT22;8283;48.504;13.734;2023-03-23T12:44:07;32.90;39.30
16347;DHT22;8283;48.504;13.734;2023-03-23T12:50:11;32.70;39.10
16347;DHT22;8283;48.504;13.734;2023-03-23T12:53:34;32.50;39.60
16347;DHT22;8283;48.504;13.734;2023-03-23T12:56:31;32.30;38.70
16347;DHT22;8283;48.504;13.734;2023-03-23T12:59:42;32.00;38.40
16347;DHT22;8283;48.504;13.734;2023-03-23T13:08:17;31.30;39.40
16347;DHT22;8283;48.504;13.734;2023-03-23T13:11:08;31.10;38.30
16347;DHT22;8283;48.504;13.734;2023-03-23T13:13:59;30.80;39.00
16347;DHT22;8283;48.504;13.734;2023-03-23T13:16:59;30.60;38.80
16347;DHT22;8283;48.504;13.734;2023-03-23T13:20:15;30.40;38.70
16347;DHT22;8283;48.504;13.734;2023-03-23T13:23:50;30.10;38.60
16347;DHT22;8283;48.504;13.734;2023-03-23T13:26:18;29.90;39.20
16347;DHT22;8283;48.504;13.734;2023-03-23T13:32:15;29.60;39.10
16347;DHT22;8283;48.504;13.734;2023-03-23T13:35:03;29.50;38.00
16347;DHT22;8283;48.504;13.734;2023-03-23T13:37:50;29.30;38.90
16347;DHT22;8283;48.504;13.734;2023-03-23T13:40:35;29.00;39.30
16347;DHT22;8283;48.504;13.734;2023-03-23T13:43:32;28.80;39.30
16347;DHT22;8283;48.504;13.734;2023-03-23T13:46:29;28.70;39.40
16347;DHT22;8283;48.504;13.734;2023-03-23T13:49:20;28.50;39.60
16347;DHT22;8283;48.504;13.734;2023-03-23T13:56:13;28.40;39.60
16347;DHT22;8283;48.504;13.734;2023-03-23T13:58:45;28.30;39.30
16347;DHT22;8283;48.504;13.734;2023-03-23T14:01:38;28.30;39.60
16347;DHT22;8283;48.504;13.734;2023-03-23T14:04:31;28.20;39.60
16347;DHT22;8283;48.504;13.734;2023-03-23T14:07:17;28.10;39.90
16347;DHT22;8283;48.504;13.734;2023-03-23T14:10:14;28.00;40.00
16347;DHT22;8283;48.504;13.734;2023-03-23T14:13:03;27.90;40.40
16347;DHT22;8283;48.504;13.734;2023-03-23T14:19:14;27.90;40.50
16347;DHT22;8283;48.504;13.734;2023-03-23T14:22:00;27.80;40.20
16347;DHT22;8283;48.504;13.734;2023-03-23T14:24:45;27.80;40.50
16347;DHT22;8283;48.504;13.734;2023-03-23T14:27:30;27.80;40.40
16347;DHT22;8283;48.504;13.734;2023-03-23T14:30:25;27.70;40.40
16347;DHT22;8283;48.504;13.734;2023-03-23T14:33:12;27.70;40.00
16347;DHT22;8283;48.504;13.734;2023-03-23T14:35:58;27.60;40.40
16347;DHT22;8283;48.504;13.734;2023-03-23T14:38:43;27.50;40.50
16347;DHT22;8283;48.504;13.734;2023-03-23T14:41:29;27.50;40.80
16347;DHT22;8283;48.504;13.734;2023-03-23T14:44:21;27.50;40.90
16347;DHT22;8283;48.504;13.734;2023-03-23T14:47:42;27.50;41.60
16347;DHT22;8283;48.504;13.734;2023-03-23T14:50:36;27.50;41.10
16347;DHT22;8283;48.504;13.734;2023-03-23T14:53:25;27.60;41.50
16347;DHT22;8283;48.504;13.734;2023-03-23T14:56:15;27.70;41.70
16347;DHT22;8283;48.504;13.734;2023-03-23T14:59:04;27.80;41.20
16347;DHT22;8283;48.504;13.734;2023-03-23T15:01:50;27.80;41.40
16347;DHT22;8283;48.504;13.734;2023-03-23T15:04:35;28.00;41.80
16347;DHT22;8283;48.504;13.734;2023-03-23T15:07:25;28.00;41.80
16347;DHT22;8283;48.504;13.734;2023-03-23T15:10:16;28.20;41.70
16347;DHT22;8283;48.504;13.734;2023-03-23T15:13:01;28.20;41.20
16347;DHT22;8283;48.504;13.734;2023-03-23T15:15:45;28.20;41.20
16347;DHT22;8283;48.504;13.734;2023-03-23T15:18:36;28.00;40.70
16347;DHT22;8283;48.504;13.734;2023-03-23T15:21:30;28.10;40.70
16347;DHT22;8283;48.504;13.734;2023-03-23T15:24:37;28.20;41.00
16347;DHT22;8283;48.504;13.734;2023-03-23T15:27:29;28.10;41.00
16347;DHT22;8283;48.504;13.734;2023-03-23T15:33:10;28.10;41.20
16347;DHT22;8283;48.504;13.734;2023-03-23T15:35:56;28.10;41.50
16347;DHT22;8283;48.504;13.734;2023-03-23T15:38:44;28.10;41.60
16347;DHT22;8283;48.504;13.734;2023-03-23T15:41:31;28.00;41.30
16347;DHT22;8283;48.504;13.734;2023-03-23T15:44:31;28.00;41.30
16347;DHT22;8283;48.504;13.734;2023-03-23T15:47:19;28.00;41.20
16347;DHT22;8283;48.504;13.734;2023-03-23T15:50:16;28.00;41.70
16347;DHT22;8283;48.504;13.734;2023-03-23T15:53:22;28.00;42.30
16347;DHT22;8283;48.504;13.734;2023-03-23T15:56:09;28.00;42.50
16347;DHT22;8283;48.504;13.734;2023-03-23T15:58:55;27.90;42.30
16347;DHT22;8283;48.504;13.734;2023-03-23T16:01:42;27.90;42.10
16347;DHT22;8283;48.504;13.734;2023-03-23T16:04:27;27.90;42.30
16347;DHT22;8283;48.504;13.734;2023-03-23T16:07:12;27.80;42.10
16347;DHT22;8283;48.504;13.734;2023-03-23T16:09:57;27.80;42.30
16347;DHT22;8283;48.504;13.734;2023-03-23T16:12:41;27.60;41.80
16347;DHT22;8283;48.504;13.734;2023-03-23T16:15:26;27.50;41.50
16347;DHT22;8283;48.504;13.734;2023-03-23T16:18:20;27.40;41.40
16347;DHT22;8283;48.504;13.734;2023-03-23T16:21:05;27.20;41.50
16347;DHT22;8283;48.504;13.734;2023-03-23T16:23:50;27.10;41.40
16347;DHT22;8283;48.504;13.734;2023-03-23T16:26:35;26.90;41.40
16347;DHT22;8283;48.504;13.734;2023-03-23T16:29:21;26.80;41.60
16347;DHT22;8283;48.504;13.734;2023-03-23T16:32:05;26.60;41.50
16347;DHT22;8283;48.504;13.734;2023-03-23T16:34:50;26.50;41.70
16347;DHT22;8283;48.504;13.734;2023-03-23T16:37:35;26.30;42.10
16347;DHT22;8283;48.504;13.734;2023-03-23T16:40:21;26.20;42.30
16347;DHT22;8283;48.504;13.734;2023-03-23T16:43:06;26.10;42.50
16347;DHT22;8283;48.504;13.734;2023-03-23T16:45:54;26.10;42.70
16347;DHT22;8283;48.504;13.734;2023-03-23T16:48:39;26.00;43.20
16347;DHT22;8283;48.504;13.734;2023-03-23T16:51:24;25.80;42.90
16347;DHT22;8283;48.504;13.734;2023-03-23T16:54:08;25.80;43.00
16347;DHT22;8283;48.504;13.734;2023-03-23T16:56:53;25.70;42.90
16347;DHT22;8283;48.504;13.734;2023-03-23T16:59:38;25.50;42.80
16347;DHT22;8283;48.504;13.734;2023-03-23T17:02:23;25.40;42.90
16347;DHT22;8283;48.504;13.734;2023-03-23T17:05:12;25.30;43.10
16347;DHT22;8283;48.504;13.734;2023-03-23T17:07:57;25.10;43.30
16347;DHT22;8283;48.504;13.734;2023-03-23T17:10:41;25.00;43.40
16347;DHT22;8283;48.504;13.734;2023-03-23T17:13:26;24.90;43.50
16347;DHT22;8283;48.504;13.734;2023-03-23T17:16:11;24.80;43.60
16347;DHT22;8283;48.504;13.734;2023-03-23T17:18:56;24.70;43.60
16347;DHT22;8283;48.504;13.734;2023-03-23T17:21:40;24.50;43.80
16347;DHT22;8283;48.504;13.734;2023-03-23T17:24:25;24.70;43.90
16347;DHT22;8283;48.504;13.734;2023-03-23T17:27:10;24.40;44.10
16347;DHT22;8283;48.504;13.734;2023-03-23T17:29:55;24.30;44.30
16347;DHT22;8283;48.504;13.734;2023-03-23T17:32:39;24.10;44.30
16347;DHT22;8283;48.504;13.734;2023-03-23T17:35:24;24.00;44.40
16347;DHT22;8283;48.504;13.734;2023-03-23T17:38:09;23.20;44.20
16347;DHT22;8283;48.504;13.734;2023-03-23T17:40:57;23.90;44.70
16347;DHT22;8283;48.504;13.734;2023-03-23T17:43:42;23.70;45.10
16347;DHT22;8283;48.504;13.734;2023-03-23T17:46:27;23.60;44.80
16347;DHT22;8283;48.504;13.734;2023-03-23T17:49:11;23.50;45.00
16347;DHT22;8283;48.504;13.734;2023-03-23T17:51:57;23.40;45.00
16347;DHT22;8283;48.504;13.734;2023-03-23T17:54:41;23.30;45.30
16347;DHT22;8283;48.504;13.734;2023-03-23T17:57:25;23.20;45.40
16347;DHT22;8283;48.504;13.734;2023-03-23T18:00:10;23.20;45.60
16347;DHT22;8283;48.504;13.734;2023-03-23T18:02:55;23.10;45.70
16347;DHT22;8283;48.504;13.734;2023-03-23T18:05:40;23.00;45.70
16347;DHT22;8283;48.504;13.734;2023-03-23T18:08:24;23.20;45.90
16347;DHT22;8283;48.504;13.734;2023-03-23T18:11:09;22.90;45.90
16347;DHT22;8283;48.504;13.734;2023-03-23T18:13:53;22.80;46.20
16347;DHT22;8283;48.504;13.734;2023-03-23T18:16:38;22.90;46.10
16347;DHT22;8283;48.504;13.734;2023-03-23T18:19:22;22.80;46.20
16347;DHT22;8283;48.504;13.734;2023-03-23T18:22:07;22.70;46.30
16347;DHT22;8283;48.504;13.734;2023-03-23T18:24:52;22.50;46.30
16347;DHT22;8283;48.504;13.734;2023-03-23T18:27:37;22.60;46.40
16347;DHT22;8283;48.504;13.734;2023-03-23T18:30:22;22.40;46.60
16347;DHT22;8283;48.504;13.734;2023-03-23T18:33:06;22.40;46.80
16347;DHT22;8283;48.504;13.734;2023-03-23T18:35:56;22.40;46.90
16347;DHT22;8283;48.504;13.734;2023-03-23T18:38:42;22.30;47.50
16347;DHT22;8283;48.504;13.734;2023-03-23T18:41:27;22.20;48.00
16347;DHT22;8283;48.504;13.734;2023-03-23T18:44:12;22.20;46.90
16347;DHT22;8283;48.504;13.734;2023-03-23T18:46:56;22.10;47.00
16347;DHT22;8283;48.504;13.734;2023-03-23T18:49:40;22.10;47.30
16347;DHT22;8283;48.504;13.734;2023-03-23T18:52:25;22.00;47.30
16347;DHT22;8283;48.504;13.734;2023-03-23T18:55:09;22.00;47.40
16347;DHT22;8283;48.504;13.734;2023-03-23T18:57:54;22.00;47.50
16347;DHT22;8283;48.504;13.734;2023-03-23T19:00:40;21.80;48.20
16347;DHT22;8283;48.504;13.734;2023-03-23T19:03:25;21.80;47.80
16347;DHT22;8283;48.504;13.734;2023-03-23T19:06:23;21.80;47.80
16347;DHT22;8283;48.504;13.734;2023-03-23T19:09:08;21.70;48.40
16347;DHT22;8283;48.504;13.734;2023-03-23T19:11:53;21.80;48.00
16347;DHT22;8283;48.504;13.734;2023-03-23T19:14:38;21.70;48.00
16347;DHT22;8283;48.504;13.734;2023-03-23T19:17:23;21.70;48.20
16347;DHT22;8283;48.504;13.734;2023-03-23T19:20:09;21.50;48.20
16347;DHT22;8283;48.504;13.734;2023-03-23T19:22:54;21.50;48.40